Time,TemperatureF,DewpointF,PressureIn,WindDirection,WindDirectionDegrees,WindSpeedMPH,WindSpeedGustMPH,Humidity,HourlyPrecipIn,Conditions,Clouds,dailyrainin,SolarRadiationWatts/m^2,SoftwareType,DateUTC
2013-07-28 00:00:00,61.6,59.3,29.91,NW,315,0.0,2.0,92,0.00,,,0.00,0.00,VWS V14.00,2013-07-28 04:00:00,
2013-07-28 00:05:00,61.6,59.3,29.92,WNW,292,0.0,4.0,92,0.00,,,0.00,0.00,VWS V14.00,2013-07-28 04:05:00,
2013-07-28 00:10:00,61.7,59.4,29.91,WNW,292,0.0,1.0,92,0.00,,,0.00,0.00,VWS V14.00,2013-07-28 04:10:00,
2013-07-28 00:15:00,61.8,59.5,29.91,WNW,292,0.0,2.0,92,0.00,,,0.00,0.00,VWS V14.00,2013-07-28 04:15:00,
2013-07-28 00:20:00,61.9,59.5,29.91,WNW,292,0.0,4.0,92,0.00,,,0.00,0.00,VWS V14.00,2013-07-28 04:20:00,
2013-07-28 00:25:00,62.0,59.7,29.91,WSW,248,1.0,6.0,92,0.00,,,0.00,0.00,VWS V14.00,2013-07-28 04:25:00,
2013-07-28 00:30:00,62.1,59.8,29.91,WSW,248,1.0,4.0,92,0.00,,,0.00,0.00,VWS V14.00,2013-07-28 04:30:00,
2013-07-28 00:35:00,62.3,60.0,29.92,WSW,248,1.0,4.0,92,0.00,,,0.00,0.00,VWS V14.00,2013-07-28 04:35:00,
2013-07-28 00:40:00,62.4,60.0,29.92,WSW,248,0.0,3.0,92,0.00,,,0.00,0.00,VWS V14.00,2013-07-28 04:40:00,
2013-07-28 00:45:00,62.6,60.2,29.92,WSW,248,1.0,4.0,92,0.00,,,0.00,0.00,VWS V14.00,2013-07-28 04:45:00,
2013-07-28 00:50:00,62.9,60.5,29.92,WSW,248,0.0,3.0,92,0.00,,,0.00,0.00,VWS V14.00,2013-07-28 04:50:00,
2013-07-28 00:55:00,63.1,60.7,29.92,WSW,248,1.0,3.0,92,0.00,,,0.00,0.00,VWS V14.00,2013-07-28 04:55:00,
2013-07-28 01:00:00,63.2,60.8,29.92,WSW,248,0.0,5.0,92,0.00,,,0.00,0.00,VWS V14.00,2013-07-28 05:00:00,
2013-07-28 01:05:00,63.4,60.7,29.91,WSW,248,0.0,3.0,91,0.00,,,0.00,0.00,VWS V14.00,2013-07-28 05:05:00,
2013-07-28 01:10:00,63.6,60.9,29.91,WSW,248,0.0,3.0,91,0.00,,,0.00,0.00,VWS V14.00,2013-07-28 05:10:00,
2013-07-28 01:15:00,63.8,61.1,29.91,WSW,248,1.0,5.0,91,0.00,,,0.00,0.00,VWS V14.00,2013-07-28 05:15:00,
2013-07-28 01:20:00,63.9,61.2,29.91,WSW,248,1.0,7.0,91,0.00,,,0.00,0.00,VWS V14.00,2013-07-28 05:20:00,
2013-07-28 01:25:00,64.1,61.4,29.91,WSW,248,0.0,3.0,91,0.00,,,0.00,0.00,VWS V14.00,2013-07-28 05:25:00,
2013-07-28 01:30:00,64.2,61.2,29.91,WSW,248,0.0,3.0,90,0.00,,,0.00,0.00,VWS V14.00,2013-07-28 05:30:00,
2013-07-28 01:35:00,64.2,61.2,29.91,WSW,248,0.0,4.0,90,0.00,,,0.00,0.00,VWS V14.00,2013-07-28 05:35:00,
2013-07-28 01:40:00,64.1,60.8,29.90,SW,225,1.0,5.0,89,0.00,,,0.00,0.00,VWS V14.00,2013-07-28 05:40:00,
2013-07-28 01:45:00,64.2,60.9,29.90,WSW,248,1.0,3.0,89,0.00,,,0.00,0.00,VWS V14.00,2013-07-28 05:45:00,
2013-07-28 01:50:00,64.3,61.0,29.90,SW,225,0.0,3.0,89,0.00,,,0.00,0.00,VWS V14.00,2013-07-28 05:50:00,
2013-07-28 01:55:00,64.3,61.0,29.90,SW,225,0.0,3.0,89,0.00,,,0.00,0.00,VWS V14.00,2013-07-28 05:55:00,
2013-07-28 02:00:00,64.3,60.7,29.90,West,270,1.0,3.0,88,0.00,,,0.00,0.00,VWS V14.00,2013-07-28 06:00:00,
2013-07-28 02:05:00,64.2,60.6,29.90,West,270,1.0,3.0,88,0.00,,,0.00,0.00,VWS V14.00,2013-07-28 06:05:00,
2013-07-28 02:10:00,64.2,60.6,29.90,West,270,0.0,1.0,88,0.00,,,0.00,0.00,VWS V14.00,2013-07-28 06:10:00,
2013-07-28 02:15:00,64.1,60.5,29.90,West,270,0.0,0.0,88,0.00,,,0.00,0.00,VWS V14.00,2013-07-28 06:15:00,
2013-07-28 02:20:00,64.1,60.5,29.90,West,270,0.0,0.0,88,0.00,,,0.00,0.00,VWS V14.00,2013-07-28 06:20:00,
2013-07-28 02:25:00,64.0,60.4,29.90,West,270,0.0,2.0,88,0.00,,,0.00,0.00,VWS V14.00,2013-07-28 06:25:00,
2013-07-28 02:30:00,64.0,60.4,29.90,West,270,0.0,1.0,88,0.00,,,0.00,0.00,VWS V14.00,2013-07-28 06:30:00,
2013-07-28 02:35:00,64.0,60.4,29.90,West,270,0.0,1.0,88,0.00,,,0.00,0.00,VWS V14.00,2013-07-28 06:35:00,
2013-07-28 02:40:00,64.0,60.4,29.90,West,270,0.0,2.0,88,0.00,,,0.00,0.00,VWS V14.00,2013-07-28 06:40:00,
2013-07-28 02:45:00,64.0,60.4,29.90,West,270,0.0,1.0,88,0.00,,,0.00,0.00,VWS V14.00,2013-07-28 06:45:00,
2013-07-28 02:50:00,64.0,60.4,29.90,West,270,0.0,1.0,88,0.00,,,0.00,0.00,VWS V14.00,2013-07-28 06:50:00,
2013-07-28 02:55:00,64.0,60.4,29.90,West,270,0.0,0.0,88,0.00,,,0.00,0.00,VWS V14.00,2013-07-28 06:55:00,
2013-07-28 03:00:00,63.9,60.6,29.90,West,270,0.0,0.0,89,0.00,,,0.00,0.00,VWS V14.00,2013-07-28 07:00:00,
2013-07-28 03:05:00,63.9,60.6,29.90,West,270,0.0,0.0,89,0.00,,,0.00,0.00,VWS V14.00,2013-07-28 07:05:00,
2013-07-28 03:10:00,63.9,60.6,29.90,West,270,0.0,2.0,89,0.00,,,0.00,0.00,VWS V14.00,2013-07-28 07:10:00,
2013-07-28 03:20:00,64.0,60.7,29.90,West,270,0.0,0.0,89,0.00,,,0.00,0.00,VWS V14.00,2013-07-28 07:20:00,
2013-07-28 03:25:00,64.0,60.7,29.90,West,270,0.0,1.0,89,0.00,,,0.00,0.00,VWS V14.00,2013-07-28 07:25:00,
2013-07-28 03:30:00,64.0,60.7,29.90,West,270,0.0,0.0,89,0.00,,,0.00,0.00,VWS V14.00,2013-07-28 07:30:00,
2013-07-28 03:35:00,64.0,60.7,29.90,West,270,0.0,1.0,89,0.00,,,0.00,0.00,VWS V14.00,2013-07-28 07:35:00,
2013-07-28 03:40:00,64.0,60.7,29.90,West,270,0.0,0.0,89,0.00,,,0.00,0.00,VWS V14.00,2013-07-28 07:40:00,
2013-07-28 03:45:00,64.0,60.7,29.90,West,270,0.0,1.0,89,0.00,,,0.00,0.00,VWS V14.00,2013-07-28 07:45:00,
2013-07-28 03:50:00,64.0,61.0,29.90,West,270,0.0,2.0,90,0.00,,,0.00,0.00,VWS V14.00,2013-07-28 07:50:00,
2013-07-28 03:55:00,64.0,60.7,29.89,West,270,0.0,2.0,89,0.00,,,0.00,0.00,VWS V14.00,2013-07-28 07:55:00,
2013-07-28 04:00:00,63.9,60.9,29.89,West,270,0.0,1.0,90,0.00,,,0.00,0.00,VWS V14.00,2013-07-28 08:00:00,
2013-07-28 04:10:00,63.8,60.5,29.89,West,270,0.0,0.0,89,0.00,,,0.00,0.00,VWS V14.00,2013-07-28 08:10:00,
2013-07-28 04:15:00,63.8,60.8,29.89,West,270,0.0,1.0,90,0.00,,,0.00,0.00,VWS V14.00,2013-07-28 08:15:00,
2013-07-28 04:20:00,63.7,60.7,29.89,West,270,0.0,0.0,90,0.00,,,0.00,0.00,VWS V14.00,2013-07-28 08:20:00,
2013-07-28 04:25:00,63.7,60.7,29.89,West,270,0.0,0.0,90,0.00,,,0.00,0.00,VWS V14.00,2013-07-28 08:25:00,
2013-07-28 04:30:00,63.7,60.7,29.89,West,270,0.0,2.0,90,0.00,,,0.00,0.00,VWS V14.00,2013-07-28 08:30:00,
2013-07-28 04:40:00,63.6,60.6,29.89,West,270,0.0,1.0,90,0.00,,,0.00,0.00,VWS V14.00,2013-07-28 08:40:00,
2013-07-28 04:45:00,63.6,60.6,29.89,West,270,0.0,1.0,90,0.00,,,0.00,0.00,VWS V14.00,2013-07-28 08:45:00,
2013-07-28 04:50:00,63.6,60.6,29.89,West,270,0.0,0.0,90,0.00,,,0.00,0.00,VWS V14.00,2013-07-28 08:50:00,
2013-07-28 04:55:00,63.5,60.5,29.90,West,270,0.0,2.0,90,0.00,,,0.00,0.00,VWS V14.00,2013-07-28 08:55:00,
2013-07-28 05:00:00,63.5,60.8,29.90,West,270,0.0,2.0,91,0.00,,,0.00,0.00,VWS V14.00,2013-07-28 09:00:00,
2013-07-28 05:05:00,63.5,60.8,29.90,West,270,1.0,3.0,91,0.00,,,0.00,0.00,VWS V14.00,2013-07-28 09:05:00,
2013-07-28 05:10:00,63.4,60.7,29.90,West,270,0.0,2.0,91,0.00,,,0.00,0.00,VWS V14.00,2013-07-28 09:10:00,
2013-07-28 05:15:00,63.4,60.7,29.90,West,270,0.0,2.0,91,0.00,,,0.00,0.00,VWS V14.00,2013-07-28 09:15:00,
2013-07-28 05:20:00,63.3,60.6,29.90,West,270,1.0,2.0,91,0.00,,,0.00,0.00,VWS V14.00,2013-07-28 09:20:00,
2013-07-28 05:25:00,63.3,60.6,29.89,West,270,1.0,3.0,91,0.00,,,0.00,0.00,VWS V14.00,2013-07-28 09:25:00,
2013-07-28 05:30:00,63.3,60.6,29.90,West,270,0.0,2.0,91,0.00,,,0.00,0.00,VWS V14.00,2013-07-28 09:30:00,
2013-07-28 05:35:00,63.3,60.6,29.90,West,270,0.0,2.0,91,0.00,,,0.00,3.00,VWS V14.00,2013-07-28 09:35:00,
2013-07-28 05:40:00,63.2,60.5,29.90,West,270,0.0,1.0,91,0.00,,,0.00,6.00,VWS V14.00,2013-07-28 09:40:00,
2013-07-28 05:45:00,63.2,60.5,29.90,West,270,0.0,1.0,91,0.00,,,0.00,5.00,VWS V14.00,2013-07-28 09:45:00,
2013-07-28 05:50:00,63.3,60.6,29.90,West,270,0.0,0.0,91,0.00,,,0.00,5.00,VWS V14.00,2013-07-28 09:50:00,
2013-07-28 05:55:00,63.2,60.5,29.90,West,270,0.0,2.0,91,0.00,,,0.00,6.00,VWS V14.00,2013-07-28 09:55:00,
2013-07-28 06:00:00,63.3,60.6,29.90,West,270,0.0,1.0,91,0.00,,,0.00,8.00,VWS V14.00,2013-07-28 10:00:00,
2013-07-28 06:05:00,63.3,60.9,29.90,West,270,1.0,4.0,92,0.00,,,0.00,11.00,VWS V14.00,2013-07-28 10:05:00,
2013-07-28 06:10:00,63.4,61.0,29.90,West,270,0.0,2.0,92,0.00,,,0.00,14.00,VWS V14.00,2013-07-28 10:10:00,
2013-07-28 06:15:00,63.4,61.0,29.90,West,270,0.0,3.0,92,0.00,,,0.00,16.00,VWS V14.00,2013-07-28 10:15:00,
2013-07-28 06:20:00,63.5,61.1,29.90,West,270,0.0,2.0,92,0.00,,,0.00,18.00,VWS V14.00,2013-07-28 10:20:00,
2013-07-28 06:25:00,63.6,61.2,29.90,SW,225,1.0,8.0,92,0.00,,,0.00,22.00,VWS V14.00,2013-07-28 10:25:00,
2013-07-28 06:30:00,63.8,61.4,29.90,SW,225,1.0,3.0,92,0.00,,,0.00,21.00,VWS V14.00,2013-07-28 10:30:00,
2013-07-28 06:35:00,63.8,61.4,29.91,SW,225,0.0,1.0,92,0.00,,,0.00,19.00,VWS V14.00,2013-07-28 10:35:00,
2013-07-28 06:40:00,64.0,61.6,29.91,SW,225,0.0,1.0,92,0.00,,,0.00,14.00,VWS V14.00,2013-07-28 10:40:00,
2013-07-28 06:45:00,64.1,61.7,29.91,SW,225,0.0,1.0,92,0.00,,,0.00,12.00,VWS V14.00,2013-07-28 10:45:00,
2013-07-28 06:50:00,64.2,61.8,29.91,SW,225,0.0,1.0,92,0.00,,,0.00,11.00,VWS V14.00,2013-07-28 10:50:00,
2013-07-28 06:55:00,64.3,61.9,29.91,SW,225,0.0,1.0,92,0.00,,,0.00,13.00,VWS V14.00,2013-07-28 10:55:00,
2013-07-28 07:00:00,64.4,62.0,29.91,SW,225,0.0,1.0,92,0.00,,,0.00,18.00,VWS V14.00,2013-07-28 11:00:00,
2013-07-28 07:05:00,64.5,62.1,29.91,SW,225,0.0,1.0,92,0.00,,,0.00,29.00,VWS V14.00,2013-07-28 11:05:00,
2013-07-28 07:10:00,64.5,62.1,29.91,SW,225,0.0,0.0,92,0.00,,,0.00,32.00,VWS V14.00,2013-07-28 11:10:00,
2013-07-28 07:15:00,64.6,62.2,29.91,SW,225,0.0,1.0,92,0.00,,,0.00,32.00,VWS V14.00,2013-07-28 11:15:00,
2013-07-28 07:20:00,64.6,62.2,29.92,SW,225,0.0,1.0,92,0.00,,,0.00,30.00,VWS V14.00,2013-07-28 11:20:00,
2013-07-28 07:25:00,64.7,62.3,29.92,SW,225,0.0,2.0,92,0.00,,,0.00,21.00,VWS V14.00,2013-07-28 11:25:00,
2013-07-28 07:30:00,64.7,62.3,29.92,SW,225,0.0,1.0,92,0.00,,,0.00,26.00,VWS V14.00,2013-07-28 11:30:00,
2013-07-28 07:35:00,64.8,62.4,29.92,SW,225,0.0,2.0,92,0.00,,,0.00,49.00,VWS V14.00,2013-07-28 11:35:00,
2013-07-28 07:40:00,64.9,62.5,29.92,SW,225,0.0,2.0,92,0.00,,,0.00,57.00,VWS V14.00,2013-07-28 11:40:00,
2013-07-28 07:45:00,65.0,62.6,29.92,SW,225,1.0,3.0,92,0.00,,,0.00,44.00,VWS V14.00,2013-07-28 11:45:00,
2013-07-28 07:50:00,65.0,62.6,29.92,SW,225,0.0,1.0,92,0.00,,,0.00,42.00,VWS V14.00,2013-07-28 11:50:00,
2013-07-28 07:55:00,65.0,62.6,29.91,SW,225,0.0,1.0,92,0.00,,,0.00,54.00,VWS V14.00,2013-07-28 11:55:00,
2013-07-28 08:00:00,65.0,62.3,29.91,SW,225,0.0,0.0,91,0.00,,,0.00,72.00,VWS V14.00,2013-07-28 12:00:00,
2013-07-28 08:05:00,65.1,62.7,29.91,SW,225,0.0,2.0,92,0.00,,,0.00,82.00,VWS V14.00,2013-07-28 12:05:00,
2013-07-28 08:15:00,65.3,62.9,29.91,SW,225,0.0,0.0,92,0.00,,,0.00,91.00,VWS V14.00,2013-07-28 12:15:00,
2013-07-28 08:20:00,65.4,63.0,29.91,SW,225,0.0,0.0,92,0.00,,,0.00,125.00,VWS V14.00,2013-07-28 12:20:00,
2013-07-28 08:25:00,65.6,63.2,29.91,SW,225,0.0,2.0,92,0.00,,,0.00,152.00,VWS V14.00,2013-07-28 12:25:00,
2013-07-28 08:30:00,65.8,63.4,29.92,SW,225,0.0,2.0,92,0.00,,,0.00,165.00,VWS V14.00,2013-07-28 12:30:00,
2013-07-28 08:35:00,65.9,63.5,29.92,SW,225,0.0,3.0,92,0.00,,,0.00,177.00,VWS V14.00,2013-07-28 12:35:00,
2013-07-28 08:40:00,66.1,63.7,29.92,SW,225,0.0,2.0,92,0.00,,,0.00,184.00,VWS V14.00,2013-07-28 12:40:00,
2013-07-28 08:45:00,66.3,63.9,29.92,SW,225,2.0,8.0,92,0.00,,,0.00,199.00,VWS V14.00,2013-07-28 12:45:00,
2013-07-28 08:50:00,66.3,63.9,29.92,WSW,248,2.0,6.0,92,0.00,,,0.00,226.00,VWS V14.00,2013-07-28 12:50:00,
2013-07-28 08:55:00,66.5,64.1,29.92,WSW,248,3.0,7.0,92,0.00,,,0.00,237.00,VWS V14.00,2013-07-28 12:55:00,
2013-07-28 09:00:00,66.8,64.4,29.91,SW,225,1.0,5.0,92,0.00,,,0.00,230.00,VWS V14.00,2013-07-28 13:00:00,
2013-07-28 09:05:00,67.0,64.3,29.91,WSW,248,2.0,7.0,91,0.00,,,0.00,234.00,VWS V14.00,2013-07-28 13:05:00,
2013-07-28 09:10:00,67.2,64.5,29.92,WSW,248,3.0,10.0,91,0.00,,,0.00,228.00,VWS V14.00,2013-07-28 13:10:00,
2013-07-28 09:15:00,67.4,64.7,29.91,SSW,202,1.0,4.0,91,0.00,,,0.00,285.00,VWS V14.00,2013-07-28 13:15:00,
2013-07-28 09:20:00,67.7,64.7,29.91,WSW,248,0.0,2.0,90,0.00,,,0.00,268.00,VWS V14.00,2013-07-28 13:20:00,
2013-07-28 09:25:00,67.9,64.5,29.91,WSW,248,1.0,5.0,89,0.00,,,0.00,235.00,VWS V14.00,2013-07-28 13:25:00,
2013-07-28 09:30:00,68.2,64.8,29.91,WSW,248,1.0,4.0,89,0.00,,,0.00,218.00,VWS V14.00,2013-07-28 13:30:00,
2013-07-28 09:35:00,68.4,65.0,29.91,SSW,202,1.0,5.0,89,0.00,,,0.00,195.00,VWS V14.00,2013-07-28 13:35:00,
2013-07-28 09:40:00,68.6,64.9,29.91,WSW,248,3.0,8.0,88,0.00,,,0.00,211.00,VWS V14.00,2013-07-28 13:40:00,
2013-07-28 09:45:00,68.8,64.8,29.91,WSW,248,1.0,5.0,87,0.00,,,0.00,227.00,VWS V14.00,2013-07-28 13:45:00,
2013-07-28 09:50:00,68.9,64.9,29.90,WSW,248,2.0,6.0,87,0.00,,,0.00,240.00,VWS V14.00,2013-07-28 13:50:00,
2013-07-28 09:55:00,69.1,64.7,29.90,WSW,248,1.0,5.0,86,0.00,,,0.00,211.00,VWS V14.00,2013-07-28 13:55:00,
2013-07-28 10:00:00,69.2,64.8,29.90,WSW,248,1.0,3.0,86,0.00,,,0.00,171.00,VWS V14.00,2013-07-28 14:00:00,
2013-07-28 10:05:00,69.2,64.5,29.90,WSW,248,3.0,8.0,85,0.00,,,0.00,135.00,VWS V14.00,2013-07-28 14:05:00,
2013-07-28 10:10:00,69.2,64.2,29.90,WSW,248,3.0,7.0,84,0.00,,,0.00,151.00,VWS V14.00,2013-07-28 14:10:00,
2013-07-28 10:15:00,69.2,64.5,29.90,WSW,248,0.0,6.0,85,0.00,,,0.00,196.00,VWS V14.00,2013-07-28 14:15:00,
2013-07-28 10:20:00,69.3,64.6,29.90,SW,225,1.0,7.0,85,0.00,,,0.00,210.00,VWS V14.00,2013-07-28 14:20:00,
2013-07-28 10:25:00,69.4,64.7,29.90,WSW,248,1.0,5.0,85,0.00,,,0.00,234.00,VWS V14.00,2013-07-28 14:25:00,
2013-07-28 10:30:00,69.4,64.4,29.89,WSW,248,3.0,7.0,84,0.00,,,0.00,213.00,VWS V14.00,2013-07-28 14:30:00,
2013-07-28 10:35:00,69.4,64.0,29.89,SW,225,2.0,10.0,83,0.00,,,0.00,159.00,VWS V14.00,2013-07-28 14:35:00,
2013-07-28 10:40:00,69.4,64.0,29.89,SW,225,4.0,11.0,83,0.00,,,0.00,197.00,VWS V14.00,2013-07-28 14:40:00,
2013-07-28 10:45:00,69.4,64.0,29.89,WSW,248,2.0,7.0,83,0.00,,,0.00,235.00,VWS V14.00,2013-07-28 14:45:00,
2013-07-28 10:50:00,69.4,64.4,29.89,SW,225,2.0,7.0,84,0.00,,,0.00,267.00,VWS V14.00,2013-07-28 14:50:00,
2013-07-28 10:55:00,69.5,64.5,29.89,WSW,248,2.0,6.0,84,0.00,,,0.00,256.00,VWS V14.00,2013-07-28 14:55:00,
2013-07-28 11:00:00,69.7,64.7,29.89,WSW,248,3.0,8.0,84,0.00,,,0.00,359.00,VWS V14.00,2013-07-28 15:00:00,
2013-07-28 11:05:00,70.0,64.9,29.88,SSW,202,2.0,7.0,84,0.00,,,0.00,458.00,VWS V14.00,2013-07-28 15:05:00,
2013-07-28 11:10:00,70.3,65.2,29.88,SSW,202,4.0,9.0,84,0.00,,,0.00,454.00,VWS V14.00,2013-07-28 15:10:00,
2013-07-28 11:15:00,70.8,65.7,29.88,SSW,202,3.0,9.0,84,0.00,,,0.00,458.00,VWS V14.00,2013-07-28 15:15:00,
2013-07-28 11:20:00,71.1,65.7,29.88,South,180,2.0,10.0,83,0.00,,,0.00,438.00,VWS V14.00,2013-07-28 15:20:00,
2013-07-28 11:25:00,71.4,66.0,29.89,South,180,3.0,9.0,83,0.00,,,0.00,425.00,VWS V14.00,2013-07-28 15:25:00,
2013-07-28 11:30:00,71.7,65.9,29.89,SW,225,4.0,12.0,82,0.00,,,0.00,462.00,VWS V14.00,2013-07-28 15:30:00,
2013-07-28 11:35:00,72.0,65.9,29.89,SW,225,3.0,9.0,81,0.00,,,0.00,579.00,VWS V14.00,2013-07-28 15:35:00,
2013-07-28 11:40:00,72.6,66.4,29.89,South,180,4.0,9.0,81,0.00,,,0.00,635.00,VWS V14.00,2013-07-28 15:40:00,
2013-07-28 11:45:00,73.2,67.4,29.89,SW,225,3.0,8.0,82,0.00,,,0.00,751.00,VWS V14.00,2013-07-28 15:45:00,
2013-07-28 11:50:00,73.8,67.2,29.89,SSW,202,2.0,8.0,80,0.00,,,0.00,555.00,VWS V14.00,2013-07-28 15:50:00,
2013-07-28 11:55:00,74.2,67.6,29.89,SSW,202,2.0,8.0,80,0.00,,,0.00,573.00,VWS V14.00,2013-07-28 15:55:00,
2013-07-28 12:00:00,74.6,67.7,29.89,SW,225,3.0,9.0,79,0.00,,,0.00,513.00,VWS V14.00,2013-07-28 16:00:00,
2013-07-28 12:05:00,74.8,67.1,29.88,SSW,202,4.0,10.0,77,0.00,,,0.00,530.00,VWS V14.00,2013-07-28 16:05:00,
2013-07-28 12:10:00,75.0,67.3,29.88,SSW,202,4.0,12.0,77,0.00,,,0.00,548.00,VWS V14.00,2013-07-28 16:10:00,
2013-07-28 12:15:00,75.0,66.9,29.88,SW,225,6.0,14.0,76,0.00,,,0.00,567.00,VWS V14.00,2013-07-28 16:15:00,
2013-07-28 12:20:00,75.3,68.0,29.88,SSW,202,3.0,14.0,78,0.00,,,0.00,645.00,VWS V14.00,2013-07-28 16:20:00,
2013-07-28 12:25:00,75.6,67.9,29.88,WSW,248,7.0,15.0,77,0.00,,,0.00,832.00,VWS V14.00,2013-07-28 16:25:00,
2013-07-28 12:30:00,75.7,67.2,29.88,WSW,248,6.0,15.0,75,0.00,,,0.00,636.00,VWS V14.00,2013-07-28 16:30:00,
2013-07-28 12:35:00,75.9,67.8,29.88,SSW,202,3.0,7.0,76,0.00,,,0.00,484.00,VWS V14.00,2013-07-28 16:35:00,
2013-07-28 12:40:00,75.9,67.8,29.88,SSW,202,5.0,9.0,76,0.00,,,0.00,479.00,VWS V14.00,2013-07-28 16:40:00,
2013-07-28 12:45:00,75.8,67.7,29.88,WSW,248,3.0,11.0,76,0.00,,,0.00,500.00,VWS V14.00,2013-07-28 16:45:00,
2013-07-28 12:50:00,76.0,67.1,29.88,WSW,248,5.0,14.0,74,0.00,,,0.00,742.00,VWS V14.00,2013-07-28 16:50:00,
2013-07-28 12:55:00,76.1,67.6,29.88,WSW,248,4.0,8.0,75,0.00,,,0.00,528.00,VWS V14.00,2013-07-28 16:55:00,
2013-07-28 13:00:00,76.2,67.7,29.88,WSW,248,5.0,10.0,75,0.00,,,0.00,449.00,VWS V14.00,2013-07-28 17:00:00,
2013-07-28 13:05:00,76.0,67.5,29.89,WSW,248,6.0,13.0,75,0.00,,,0.00,426.00,VWS V14.00,2013-07-28 17:05:00,
2013-07-28 13:10:00,76.1,67.6,29.89,SW,225,3.0,9.0,75,0.00,,,0.00,466.00,VWS V14.00,2013-07-28 17:10:00,
2013-07-28 13:15:00,75.9,67.0,29.89,WSW,248,3.0,10.0,74,0.00,,,0.00,311.00,VWS V14.00,2013-07-28 17:15:00,
2013-07-28 13:20:00,75.8,67.3,29.89,WSW,248,3.0,8.0,75,0.00,,,0.00,289.00,VWS V14.00,2013-07-28 17:20:00,
2013-07-28 13:25:00,75.7,67.6,29.89,SW,225,3.0,8.0,76,0.00,,,0.00,274.00,VWS V14.00,2013-07-28 17:25:00,
2013-07-28 13:30:00,75.5,67.4,29.89,SSW,202,3.0,9.0,76,0.00,,,0.00,358.00,VWS V14.00,2013-07-28 17:30:00,
2013-07-28 13:35:00,75.3,67.2,29.89,WSW,248,4.0,11.0,76,0.00,,,0.00,262.00,VWS V14.00,2013-07-28 17:35:00,
2013-07-28 13:40:00,75.2,67.1,29.88,SW,225,3.0,8.0,76,0.00,,,0.00,300.00,VWS V14.00,2013-07-28 17:40:00,
2013-07-28 13:45:00,75.2,67.5,29.88,WSW,248,2.0,6.0,77,0.00,,,0.00,336.00,VWS V14.00,2013-07-28 17:45:00,
2013-07-28 13:50:00,75.2,67.5,29.88,SSW,202,2.0,6.0,77,0.00,,,0.00,420.00,VWS V14.00,2013-07-28 17:50:00,
2013-07-28 13:55:00,75.3,67.6,29.88,SW,225,3.0,5.0,77,0.00,,,0.00,508.00,VWS V14.00,2013-07-28 17:55:00,
2013-07-28 14:00:00,75.9,69.3,29.88,SW,225,1.0,5.0,80,0.00,,,0.00,749.00,VWS V14.00,2013-07-28 18:00:00,
2013-07-28 14:05:00,76.9,69.5,29.88,South,180,3.0,7.0,78,0.00,,,0.00,944.00,VWS V14.00,2013-07-28 18:05:00,
2013-07-28 14:10:00,77.6,69.8,29.88,South,180,3.0,10.0,77,0.00,,,0.00,655.00,VWS V14.00,2013-07-28 18:10:00,
2013-07-28 14:15:00,77.6,68.3,29.88,SSW,202,6.0,12.0,73,0.00,,,0.00,404.00,VWS V14.00,2013-07-28 18:15:00,
2013-07-28 14:20:00,77.4,67.7,29.88,SSW,202,4.0,7.0,72,0.00,,,0.00,237.00,VWS V14.00,2013-07-28 18:20:00,
2013-07-28 14:25:00,77.1,67.8,29.88,SW,225,2.0,6.0,73,0.00,,,0.00,154.00,VWS V14.00,2013-07-28 18:25:00,
2013-07-28 14:30:00,76.7,67.4,29.88,SW,225,3.0,10.0,73,0.00,,,0.00,85.00,VWS V14.00,2013-07-28 18:30:00,
2013-07-28 14:35:00,76.0,67.1,29.88,SSW,202,3.0,8.0,74,0.00,,,0.00,76.00,VWS V14.00,2013-07-28 18:35:00,
2013-07-28 14:40:00,75.5,67.4,29.88,South,180,2.0,7.0,76,0.00,,,0.00,84.00,VWS V14.00,2013-07-28 18:40:00,
2013-07-28 14:45:00,75.1,67.0,29.88,SSW,202,2.0,5.0,76,0.00,,,0.00,61.00,VWS V14.00,2013-07-28 18:45:00,
2013-07-28 14:50:00,74.5,66.8,29.87,South,180,5.0,11.0,77,0.00,,,0.00,105.00,VWS V14.00,2013-07-28 18:50:00,
2013-07-28 14:55:00,74.1,66.1,29.88,SSW,202,5.0,14.0,76,0.00,,,0.00,175.00,VWS V14.00,2013-07-28 18:55:00,
2013-07-28 15:00:00,74.0,66.3,29.87,SSW,202,5.0,14.0,77,0.00,,,0.00,284.00,VWS V14.00,2013-07-28 19:00:00,
2013-07-28 15:05:00,74.1,66.8,29.87,SSW,202,5.0,16.0,78,0.00,,,0.00,342.00,VWS V14.00,2013-07-28 19:05:00,
2013-07-28 15:10:00,74.1,66.8,29.87,SSW,202,5.0,11.0,78,0.00,,,0.00,169.00,VWS V14.00,2013-07-28 19:10:00,
2013-07-28 15:15:00,74.0,66.3,29.87,SW,225,5.0,15.0,77,0.00,,,0.00,278.00,VWS V14.00,2013-07-28 19:15:00,
2013-07-28 15:20:00,74.1,66.4,29.87,SW,225,6.0,19.0,77,0.00,,,0.00,201.00,VWS V14.00,2013-07-28 19:20:00,
2013-07-28 15:25:00,73.8,65.8,29.87,SSW,202,10.0,19.0,76,0.00,,,0.00,95.00,VWS V14.00,2013-07-28 19:25:00,
2013-07-28 15:30:00,73.6,65.9,29.87,SSW,202,6.0,12.0,77,0.00,,,0.00,95.00,VWS V14.00,2013-07-28 19:30:00,
2013-07-28 15:35:00,73.4,66.1,29.87,SSW,202,4.0,10.0,78,0.00,,,0.00,97.00,VWS V14.00,2013-07-28 19:35:00,
2013-07-28 15:40:00,73.3,66.4,29.87,SSW,202,5.0,13.0,79,0.00,,,0.00,135.00,VWS V14.00,2013-07-28 19:40:00,
2013-07-28 15:45:00,73.2,66.3,29.88,WSW,248,3.0,9.0,79,0.00,,,0.00,183.00,VWS V14.00,2013-07-28 19:45:00,
2013-07-28 15:50:00,73.3,66.8,29.88,WSW,248,2.0,6.0,80,0.00,,,0.00,283.00,VWS V14.00,2013-07-28 19:50:00,
2013-07-28 15:55:00,73.4,66.9,29.87,SSW,202,4.0,10.0,80,0.00,,,0.00,223.00,VWS V14.00,2013-07-28 19:55:00,
2013-07-28 16:00:00,73.5,67.0,29.87,South,180,2.0,7.0,80,0.00,,,0.00,169.00,VWS V14.00,2013-07-28 20:00:00,
2013-07-28 16:05:00,73.6,67.1,29.87,SW,225,3.0,9.0,80,0.00,,,0.00,222.00,VWS V14.00,2013-07-28 20:05:00,
2013-07-28 16:10:00,73.6,66.7,29.87,SW,225,6.0,12.0,79,0.00,,,0.00,206.00,VWS V14.00,2013-07-28 20:10:00,
2013-07-28 16:15:00,73.5,66.2,29.87,SSW,202,7.0,18.0,78,0.00,,,0.00,152.00,VWS V14.00,2013-07-28 20:15:00,
2013-07-28 16:20:00,73.4,66.1,29.86,SW,225,7.0,14.0,78,0.00,,,0.00,199.00,VWS V14.00,2013-07-28 20:20:00,
2013-07-28 16:25:00,73.4,66.1,29.86,WSW,248,5.0,13.0,78,0.00,,,0.00,251.00,VWS V14.00,2013-07-28 20:25:00,
2013-07-28 16:30:00,73.5,66.6,29.86,WSW,248,5.0,16.0,79,0.00,,,0.00,247.00,VWS V14.00,2013-07-28 20:30:00,
2013-07-28 16:35:00,73.5,66.2,29.86,WSW,248,4.0,14.0,78,0.00,,,0.00,231.00,VWS V14.00,2013-07-28 20:35:00,
2013-07-28 16:40:00,73.5,66.6,29.86,SW,225,4.0,9.0,79,0.00,,,0.00,177.00,VWS V14.00,2013-07-28 20:40:00,
2013-07-28 16:45:00,73.5,66.6,29.86,SW,225,3.0,9.0,79,0.00,,,0.00,158.00,VWS V14.00,2013-07-28 20:45:00,
2013-07-28 16:50:00,73.5,66.6,29.86,SW,225,3.0,9.0,79,0.00,,,0.00,158.00,VWS V14.00,2013-07-28 20:50:00,
2013-07-28 16:55:00,73.5,66.6,29.86,SW,225,4.0,10.0,79,0.00,,,0.00,174.00,VWS V14.00,2013-07-28 20:55:00,
2013-07-28 17:00:00,73.4,66.5,29.87,SW,225,3.0,9.0,79,0.00,,,0.00,110.00,VWS V14.00,2013-07-28 21:00:00,
2013-07-28 17:05:00,73.3,66.4,29.87,SW,225,2.0,7.0,79,0.00,,,0.00,132.00,VWS V14.00,2013-07-28 21:05:00,
2013-07-28 17:10:00,73.1,66.2,29.86,WSW,248,1.0,4.0,79,0.00,,,0.00,86.00,VWS V14.00,2013-07-28 21:10:00,
2013-07-28 17:15:00,73.0,66.1,29.86,SW,225,3.0,9.0,79,0.00,,,0.00,113.00,VWS V14.00,2013-07-28 21:15:00,
2013-07-28 17:20:00,72.9,66.4,29.86,WSW,248,3.0,5.0,80,0.00,,,0.00,91.00,VWS V14.00,2013-07-28 21:20:00,
2013-07-28 17:25:00,72.8,66.3,29.86,WSW,248,2.0,6.0,80,0.00,,,0.00,116.00,VWS V14.00,2013-07-28 21:25:00,
2013-07-28 17:30:00,72.7,66.2,29.86,WSW,248,5.0,14.0,80,0.00,,,0.00,246.00,VWS V14.00,2013-07-28 21:30:00,
2013-07-28 17:35:00,72.7,66.2,29.86,SSW,202,4.0,10.0,80,0.00,,,0.00,133.00,VWS V14.00,2013-07-28 21:35:00,
2013-07-28 17:40:00,72.7,65.8,29.86,SSW,202,4.0,10.0,79,0.00,,,0.00,93.00,VWS V14.00,2013-07-28 21:40:00,
2013-07-28 17:45:00,72.6,66.1,29.86,SSW,202,3.0,6.0,80,0.00,,,0.00,90.00,VWS V14.00,2013-07-28 21:45:00,
2013-07-28 17:55:00,72.4,65.9,29.87,SW,225,1.0,4.0,80,0.00,,,0.00,61.00,VWS V14.00,2013-07-28 21:55:00,
2013-07-28 18:00:00,72.3,65.8,29.86,SW,225,1.0,4.0,80,0.00,,,0.00,86.00,VWS V14.00,2013-07-28 22:00:00,
2013-07-28 18:05:00,72.2,65.7,29.86,WSW,248,3.0,8.0,80,0.00,,,0.00,147.00,VWS V14.00,2013-07-28 22:05:00,
2013-07-28 18:10:00,72.2,65.7,29.86,SW,225,2.0,8.0,80,0.00,,,0.00,271.00,VWS V14.00,2013-07-28 22:10:00,
2013-07-28 18:15:00,72.4,66.2,29.87,SW,225,1.0,5.0,81,0.00,,,0.00,205.00,VWS V14.00,2013-07-28 22:15:00,
2013-07-28 18:20:00,72.4,65.9,29.87,SSW,202,1.0,5.0,80,0.00,,,0.00,126.00,VWS V14.00,2013-07-28 22:20:00,
2013-07-28 18:25:00,72.4,65.9,29.87,SW,225,2.0,6.0,80,0.00,,,0.00,78.00,VWS V14.00,2013-07-28 22:25:00,
2013-07-28 18:30:00,72.4,65.5,29.87,SSW,202,3.0,9.0,79,0.00,,,0.00,38.00,VWS V14.00,2013-07-28 22:30:00,
2013-07-28 18:35:00,72.2,65.3,29.87,SW,225,3.0,10.0,79,0.00,,,0.00,51.00,VWS V14.00,2013-07-28 22:35:00,
2013-07-28 18:40:00,72.0,65.1,29.87,WSW,248,3.0,11.0,79,0.00,,,0.00,51.00,VWS V14.00,2013-07-28 22:40:00,
2013-07-28 18:45:00,71.9,65.0,29.87,SW,225,2.0,6.0,79,0.00,,,0.00,48.00,VWS V14.00,2013-07-28 22:45:00,
2013-07-28 18:50:00,71.8,64.9,29.88,SSW,202,1.0,5.0,79,0.00,,,0.00,50.00,VWS V14.00,2013-07-28 22:50:00,
2013-07-28 18:55:00,71.7,65.2,29.88,SW,225,2.0,6.0,80,0.00,,,0.00,64.00,VWS V14.00,2013-07-28 22:55:00,
2013-07-28 19:00:00,71.6,65.1,29.88,SW,225,2.0,8.0,80,0.00,,,0.00,25.00,VWS V14.00,2013-07-28 23:00:00,
2013-07-28 19:05:00,71.4,64.9,29.88,SW,225,3.0,13.0,80,0.00,,,0.00,19.00,VWS V14.00,2013-07-28 23:05:00,
2013-07-28 19:10:00,71.2,64.7,29.89,WSW,248,6.0,12.0,80,0.00,,,0.00,20.00,VWS V14.00,2013-07-28 23:10:00,
2013-07-28 19:15:00,71.1,64.6,29.89,WSW,248,3.0,10.0,80,0.00,,,0.00,30.00,VWS V14.00,2013-07-28 23:15:00,
2013-07-28 19:20:00,71.1,64.6,29.89,WSW,248,1.0,7.0,80,0.00,,,0.00,57.00,VWS V14.00,2013-07-28 23:20:00,
2013-07-28 19:25:00,71.1,65.0,29.88,WSW,248,0.0,2.0,81,0.00,,,0.00,63.00,VWS V14.00,2013-07-28 23:25:00,
2013-07-28 19:30:00,71.0,64.9,29.89,SW,225,2.0,5.0,81,0.00,,,0.00,55.00,VWS V14.00,2013-07-28 23:30:00,
2013-07-28 19:35:00,70.9,64.8,29.88,WSW,248,3.0,7.0,81,0.00,,,0.00,41.00,VWS V14.00,2013-07-28 23:35:00,
2013-07-28 19:40:00,70.9,64.8,29.89,WSW,248,1.0,7.0,81,0.00,,,0.00,23.00,VWS V14.00,2013-07-28 23:40:00,
2013-07-28 19:45:00,70.8,64.7,29.89,WSW,248,0.0,3.0,81,0.00,,,0.00,15.00,VWS V14.00,2013-07-28 23:45:00,
2013-07-28 19:50:00,70.8,65.0,29.88,WSW,248,0.0,4.0,82,0.00,,,0.00,13.00,VWS V14.00,2013-07-28 23:50:00,
2013-07-28 19:55:00,70.7,64.9,29.88,WSW,248,0.0,0.0,82,0.00,,,0.00,11.00,VWS V14.00,2013-07-28 23:55:00,
2013-07-28 20:00:00,70.6,64.8,29.88,WSW,248,0.0,3.0,82,0.00,,,0.00,12.00,VWS V14.00,2013-07-29 00:00:00,
2013-07-28 20:05:00,70.4,64.7,29.88,WSW,248,1.0,5.0,82,0.00,,,0.00,12.00,VWS V14.00,2013-07-29 00:05:00,
2013-07-28 20:10:00,70.3,64.6,29.88,WSW,248,1.0,5.0,82,0.00,,,0.00,12.00,VWS V14.00,2013-07-29 00:10:00,
2013-07-28 20:15:00,70.2,64.4,29.88,WSW,248,0.0,2.0,82,0.00,,,0.00,13.00,VWS V14.00,2013-07-29 00:15:00,
2013-07-28 20:20:00,70.1,64.7,29.88,SW,225,2.0,8.0,83,0.00,,,0.00,12.00,VWS V14.00,2013-07-29 00:20:00,
2013-07-28 20:25:00,69.9,64.5,29.88,WSW,248,2.0,5.0,83,0.00,,,0.00,16.00,VWS V14.00,2013-07-29 00:25:00,
2013-07-28 20:30:00,69.8,64.8,29.88,SSW,202,1.0,4.0,84,0.00,,,0.00,10.00,VWS V14.00,2013-07-29 00:30:00,
2013-07-28 20:35:00,69.7,64.7,29.89,WSW,248,1.0,5.0,84,0.00,,,0.00,2.00,VWS V14.00,2013-07-29 00:35:00,
2013-07-28 20:40:00,69.6,64.6,29.89,WSW,248,1.0,9.0,84,0.00,,,0.00,0.00,VWS V14.00,2013-07-29 00:40:00,
2013-07-28 20:45:00,69.5,64.5,29.89,West,270,1.0,6.0,84,0.00,,,0.00,0.00,VWS V14.00,2013-07-29 00:45:00,
2013-07-28 20:50:00,69.4,64.7,29.89,WSW,248,3.0,10.0,85,0.00,,,0.00,0.00,VWS V14.00,2013-07-29 00:50:00,
2013-07-28 20:55:00,69.2,64.5,29.89,West,270,2.0,8.0,85,0.00,,,0.00,0.00,VWS V14.00,2013-07-29 00:55:00,
2013-07-28 21:00:00,69.2,64.5,29.89,WNW,292,1.0,4.0,85,0.00,,,0.00,0.00,VWS V14.00,2013-07-29 01:00:00,
2013-07-28 21:05:00,69.1,64.4,29.89,WNW,292,0.0,2.0,85,0.00,,,0.00,0.00,VWS V14.00,2013-07-29 01:05:00,
2013-07-28 21:10:00,69.0,64.3,29.90,WNW,292,0.0,2.0,85,0.00,,,0.00,0.00,VWS V14.00,2013-07-29 01:10:00,
2013-07-28 21:15:00,68.9,64.2,29.89,WNW,292,0.0,2.0,85,0.00,,,0.00,0.00,VWS V14.00,2013-07-29 01:15:00,
2013-07-28 21:20:00,68.8,64.4,29.90,WNW,292,0.0,1.0,86,0.00,,,0.00,0.00,VWS V14.00,2013-07-29 01:20:00,
2013-07-28 21:25:00,68.7,64.3,29.89,WNW,292,0.0,2.0,86,0.00,,,0.00,0.00,VWS V14.00,2013-07-29 01:25:00,
2013-07-28 21:30:00,68.6,64.2,29.89,WNW,292,0.0,1.0,86,0.00,,,0.00,0.00,VWS V14.00,2013-07-29 01:30:00,
2013-07-28 21:35:00,68.6,64.2,29.90,WNW,292,0.0,4.0,86,0.00,,,0.00,0.00,VWS V14.00,2013-07-29 01:35:00,
2013-07-28 21:40:00,68.5,64.2,29.90,WNW,292,0.0,1.0,86,0.00,,,0.00,0.00,VWS V14.00,2013-07-29 01:40:00,
2013-07-28 21:45:00,68.4,64.1,29.90,WNW,292,0.0,1.0,86,0.00,,,0.00,0.00,VWS V14.00,2013-07-29 01:45:00,
2013-07-28 21:50:00,68.3,64.0,29.90,WNW,292,0.0,1.0,86,0.00,,,0.00,0.00,VWS V14.00,2013-07-29 01:50:00,
2013-07-28 21:55:00,68.2,64.2,29.90,WNW,292,0.0,1.0,87,0.00,,,0.00,0.00,VWS V14.00,2013-07-29 01:55:00,
2013-07-28 22:00:00,68.1,64.1,29.90,WNW,292,0.0,1.0,87,0.00,,,0.00,0.00,VWS V14.00,2013-07-29 02:00:00,
2013-07-28 22:05:00,68.0,64.0,29.90,WNW,292,0.0,0.0,87,0.00,,,0.00,0.00,VWS V14.00,2013-07-29 02:05:00,
2013-07-28 22:10:00,67.9,63.9,29.91,WNW,292,0.0,0.0,87,0.00,,,0.00,0.00,VWS V14.00,2013-07-29 02:10:00,
2013-07-28 22:15:00,67.9,63.9,29.91,WNW,292,0.0,0.0,87,0.00,,,0.00,0.00,VWS V14.00,2013-07-29 02:15:00,
2013-07-28 22:25:00,67.7,64.0,29.90,WNW,292,0.0,0.0,88,0.00,,,0.00,0.00,VWS V14.00,2013-07-29 02:25:00,
2013-07-28 22:30:00,67.6,63.9,29.90,WNW,292,0.0,1.0,88,0.00,,,0.00,0.00,VWS V14.00,2013-07-29 02:30:00,
2013-07-28 22:35:00,67.6,63.9,29.90,WNW,292,0.0,0.0,88,0.00,,,0.00,0.00,VWS V14.00,2013-07-29 02:35:00,
2013-07-28 22:40:00,67.5,63.8,29.90,WNW,292,0.0,0.0,88,0.00,,,0.00,0.00,VWS V14.00,2013-07-29 02:40:00,
2013-07-28 22:45:00,67.4,64.1,29.90,WNW,292,0.0,0.0,89,0.00,,,0.00,0.00,VWS V14.00,2013-07-29 02:45:00,
2013-07-28 22:50:00,67.4,64.1,29.90,WNW,292,0.0,0.0,89,0.00,,,0.00,0.00,VWS V14.00,2013-07-29 02:50:00,
2013-07-28 22:55:00,67.3,64.0,29.90,WNW,292,0.0,0.0,89,0.00,,,0.00,0.00,VWS V14.00,2013-07-29 02:55:00,
2013-07-28 23:00:00,67.3,64.0,29.90,WNW,292,0.0,0.0,89,0.00,,,0.00,0.00,VWS V14.00,2013-07-29 03:00:00,
2013-07-28 23:05:00,67.3,64.0,29.90,WNW,292,0.0,0.0,89,0.00,,,0.00,0.00,VWS V14.00,2013-07-29 03:05:00,
2013-07-28 23:10:00,67.3,64.0,29.90,WNW,292,0.0,0.0,89,0.00,,,0.00,0.00,VWS V14.00,2013-07-29 03:10:00,
2013-07-28 23:15:00,67.2,63.8,29.90,WNW,292,0.0,1.0,89,0.00,,,0.00,0.00,VWS V14.00,2013-07-29 03:15:00,
2013-07-28 23:20:00,67.2,63.8,29.90,WNW,292,0.0,1.0,89,0.00,,,0.00,0.00,VWS V14.00,2013-07-29 03:20:00,
2013-07-28 23:25:00,67.2,64.2,29.90,WNW,292,0.0,0.0,90,0.00,,,0.00,0.00,VWS V14.00,2013-07-29 03:25:00,
2013-07-28 23:30:00,67.2,64.2,29.90,WNW,292,0.0,0.0,90,0.00,,,0.00,0.00,VWS V14.00,2013-07-29 03:30:00,
2013-07-28 23:35:00,67.2,64.2,29.90,WNW,292,0.0,0.0,90,0.01,,,0.01,0.00,VWS V14.00,2013-07-29 03:35:00,
2013-07-28 23:40:00,67.2,64.2,29.90,WNW,292,1.0,3.0,90,0.01,,,0.01,0.00,VWS V14.00,2013-07-29 03:40:00,
2013-07-28 23:45:00,67.2,64.2,29.90,WNW,292,0.0,1.0,90,0.01,,,0.01,0.00,VWS V14.00,2013-07-29 03:45:00,
2013-07-28 23:50:00,67.2,64.2,29.90,WNW,292,0.0,0.0,90,0.01,,,0.01,0.00,VWS V14.00,2013-07-29 03:50:00,
2013-07-28 23:55:00,67.1,64.1,29.90,WNW,292,0.0,0.0,90,0.01,,,0.01,0.00,VWS V14.00,2013-07-29 03:55:00,